sensor_id;sensor_type;location;lat;lon;timestamp;P1;durP1;ratioP1;P2;durP2;ratioP2
23304;SDS011;11821;51.456;8.844;2023-08-01T00:00:33;3.33;;;1.00;;
23304;SDS011;11821;51.456;8.844;2023-08-01T00:03:00;6.15;;;1.10;;
23304;SDS011;11821;51.456;8.844;2023-08-01T00:05:26;2.88;;;1.13;;
23304;SDS011;11821;51.456;8.844;2023-08-01T00:07:53;4.65;;;0.90;;
23304;SDS011;11821;51.456;8.844;2023-08-01T00:10:19;1.73;;;0.80;;
23304;SDS011;11821;51.456;8.844;2023-08-01T00:12:46;3.20;;;0.90;;
23304;SDS011;11821;51.456;8.844;2023-08-01T00:15:12;0.88;;;0.73;;
23304;SDS011;11821;51.456;8.844;2023-08-01T00:17:39;2.33;;;0.95;;
23304;SDS011;11821;51.456;8.844;2023-08-01T00:20:06;2.00;;;1.00;;
23304;SDS011;11821;51.456;8.844;2023-08-01T00:22:33;1.52;;;0.95;;
23304;SDS011;11821;51.456;8.844;2023-08-01T00:24:59;4.43;;;0.90;;
23304;SDS011;11821;51.456;8.844;2023-08-01T00:27:26;1.60;;;0.77;;
23304;SDS011;11821;51.456;8.844;2023-08-01T00:29:52;5.78;;;1.00;;
23304;SDS011;11821;51.456;8.844;2023-08-01T00:32:19;2.45;;;1.13;;
23304;SDS011;11821;51.456;8.844;2023-08-01T00:34:45;2.40;;;1.10;;
23304;SDS011;11821;51.456;8.844;2023-08-01T00:37:12;5.32;;;1.00;;
23304;SDS011;11821;51.456;8.844;2023-08-01T00:39:39;3.55;;;1.00;;
23304;SDS011;11821;51.456;8.844;2023-08-01T00:42:05;0.80;;;0.45;;
23304;SDS011;11821;51.456;8.844;2023-08-01T00:44:32;0.50;;;0.30;;
23304;SDS011;11821;51.456;8.844;2023-08-01T00:46:58;1.55;;;0.50;;
23304;SDS011;11821;51.456;8.844;2023-08-01T00:49:25;0.98;;;0.57;;
23304;SDS011;11821;51.456;8.844;2023-08-01T00:51:51;2.47;;;0.60;;
23304;SDS011;11821;51.456;8.844;2023-08-01T00:54:18;3.88;;;0.75;;
23304;SDS011;11821;51.456;8.844;2023-08-01T00:56:45;1.15;;;0.60;;
23304;SDS011;11821;51.456;8.844;2023-08-01T00:59:12;5.07;;;0.60;;
23304;SDS011;11821;51.456;8.844;2023-08-01T01:01:39;1.88;;;0.43;;
23304;SDS011;11821;51.456;8.844;2023-08-01T01:04:05;0.75;;;0.40;;
23304;SDS011;11821;51.456;8.844;2023-08-01T01:06:32;3.90;;;0.70;;
23304;SDS011;11821;51.456;8.844;2023-08-01T01:09:00;0.75;;;0.50;;
23304;SDS011;11821;51.456;8.844;2023-08-01T01:11:30;1.45;;;0.50;;
23304;SDS011;11821;51.456;8.844;2023-08-01T01:13:57;4.07;;;0.47;;
23304;SDS011;11821;51.456;8.844;2023-08-01T01:16:23;0.88;;;0.50;;
23304;SDS011;11821;51.456;8.844;2023-08-01T01:18:50;1.05;;;0.30;;
23304;SDS011;11821;51.456;8.844;2023-08-01T01:21:16;0.30;;;0.30;;
23304;SDS011;11821;51.456;8.844;2023-08-01T01:23:43;1.25;;;0.52;;
23304;SDS011;11821;51.456;8.844;2023-08-01T01:26:10;1.20;;;0.50;;
23304;SDS011;11821;51.456;8.844;2023-08-01T01:28:37;1.10;;;0.30;;
23304;SDS011;11821;51.456;8.844;2023-08-01T01:31:03;0.30;;;0.30;;
23304;SDS011;11821;51.456;8.844;2023-08-01T01:33:30;2.08;;;0.40;;
23304;SDS011;11821;51.456;8.844;2023-08-01T01:35:57;1.55;;;0.50;;
23304;SDS011;11821;51.456;8.844;2023-08-01T01:38:23;0.43;;;0.25;;
23304;SDS011;11821;51.456;8.844;2023-08-01T01:40:50;0.30;;;0.30;;
23304;SDS011;11821;51.456;8.844;2023-08-01T01:43:16;0.28;;;0.28;;
23304;SDS011;11821;51.456;8.844;2023-08-01T01:45:43;3.13;;;0.45;;
23304;SDS011;11821;51.456;8.844;2023-08-01T01:48:09;0.30;;;0.30;;
23304;SDS011;11821;51.456;8.844;2023-08-01T01:50:36;1.92;;;0.40;;
23304;SDS011;11821;51.456;8.844;2023-08-01T01:53:02;1.02;;;0.32;;
23304;SDS011;11821;51.456;8.844;2023-08-01T01:58:59;2.35;;;0.38;;
23304;SDS011;11821;51.456;8.844;2023-08-01T02:01:25;0.45;;;0.45;;
23304;SDS011;11821;51.456;8.844;2023-08-01T02:03:52;0.40;;;0.32;;
23304;SDS011;11821;51.456;8.844;2023-08-01T02:06:18;1.50;;;0.40;;
23304;SDS011;11821;51.456;8.844;2023-08-01T02:08:45;0.57;;;0.30;;
23304;SDS011;11821;51.456;8.844;2023-08-01T02:11:11;2.85;;;0.52;;
23304;SDS011;11821;51.456;8.844;2023-08-01T02:13:38;0.52;;;0.28;;
23304;SDS011;11821;51.456;8.844;2023-08-01T02:16:04;2.17;;;0.50;;
23304;SDS011;11821;51.456;8.844;2023-08-01T02:18:31;1.42;;;0.50;;
23304;SDS011;11821;51.456;8.844;2023-08-01T02:20:58;1.00;;;0.57;;
23304;SDS011;11821;51.456;8.844;2023-08-01T02:23:24;0.35;;;0.35;;
23304;SDS011;11821;51.456;8.844;2023-08-01T02:25:51;0.52;;;0.50;;
23304;SDS011;11821;51.456;8.844;2023-08-01T02:28:17;0.70;;;0.40;;
23304;SDS011;11821;51.456;8.844;2023-08-01T02:30:44;0.60;;;0.50;;
23304;SDS011;11821;51.456;8.844;2023-08-01T02:33:10;1.50;;;0.40;;
23304;SDS011;11821;51.456;8.844;2023-08-01T02:35:37;1.23;;;0.50;;
23304;SDS011;11821;51.456;8.844;2023-08-01T02:38:03;0.40;;;0.40;;
23304;SDS011;11821;51.456;8.844;2023-08-01T02:40:30;0.55;;;0.40;;
23304;SDS011;11821;51.456;8.844;2023-08-01T02:42:57;1.08;;;0.43;;
23304;SDS011;11821;51.456;8.844;2023-08-01T02:45:23;2.13;;;0.50;;
23304;SDS011;11821;51.456;8.844;2023-08-01T02:47:50;1.33;;;0.50;;
23304;SDS011;11821;51.456;8.844;2023-08-01T02:50:17;0.80;;;0.43;;
23304;SDS011;11821;51.456;8.844;2023-08-01T02:52:43;1.10;;;0.40;;
23304;SDS011;11821;51.456;8.844;2023-08-01T02:55:10;2.88;;;0.47;;
23304;SDS011;11821;51.456;8.844;2023-08-01T02:57:37;2.13;;;0.40;;
23304;SDS011;11821;51.456;8.844;2023-08-01T03:00:03;0.80;;;0.35;;
23304;SDS011;11821;51.456;8.844;2023-08-01T03:02:31;2.15;;;0.50;;
23304;SDS011;11821;51.456;8.844;2023-08-01T03:04:58;0.85;;;0.38;;
23304;SDS011;11821;51.456;8.844;2023-08-01T03:07:25;2.08;;;0.40;;
23304;SDS011;11821;51.456;8.844;2023-08-01T03:09:51;1.23;;;0.28;;
23304;SDS011;11821;51.456;8.844;2023-08-01T03:12:19;0.82;;;0.50;;
23304;SDS011;11821;51.456;8.844;2023-08-01T03:14:46;2.78;;;0.60;;
23304;SDS011;11821;51.456;8.844;2023-08-01T03:17:13;0.30;;;0.30;;
23304;SDS011;11821;51.456;8.844;2023-08-01T03:19:39;0.80;;;0.25;;
23304;SDS011;11821;51.456;8.844;2023-08-01T03:22:06;3.67;;;0.40;;
23304;SDS011;11821;51.456;8.844;2023-08-01T03:24:33;1.40;;;0.85;;
23304;SDS011;11821;51.456;8.844;2023-08-01T03:26:59;0.50;;;0.50;;
23304;SDS011;11821;51.456;8.844;2023-08-01T03:29:26;0.95;;;0.32;;
23304;SDS011;11821;51.456;8.844;2023-08-01T03:31:53;0.40;;;0.22;;
23304;SDS011;11821;51.456;8.844;2023-08-01T03:34:19;1.00;;;0.40;;
23304;SDS011;11821;51.456;8.844;2023-08-01T03:36:46;3.90;;;0.60;;
23304;SDS011;11821;51.456;8.844;2023-08-01T03:39:12;1.95;;;0.50;;
23304;SDS011;11821;51.456;8.844;2023-08-01T03:41:39;2.35;;;0.60;;
23304;SDS011;11821;51.456;8.844;2023-08-01T03:44:06;1.77;;;0.50;;
23304;SDS011;11821;51.456;8.844;2023-08-01T03:46:32;0.25;;;0.20;;
23304;SDS011;11821;51.456;8.844;2023-08-01T03:48:59;0.55;;;0.22;;
23304;SDS011;11821;51.456;8.844;2023-08-01T03:51:25;0.20;;;0.20;;
23304;SDS011;11821;51.456;8.844;2023-08-01T03:53:52;0.10;;;0.10;;
23304;SDS011;11821;51.456;8.844;2023-08-01T03:56:18;1.30;;;0.10;;
23304;SDS011;11821;51.456;8.844;2023-08-01T03:58:45;0.20;;;0.20;;
23304;SDS011;11821;51.456;8.844;2023-08-01T04:01:11;1.90;;;0.20;;
23304;SDS011;11821;51.456;8.844;2023-08-01T04:03:38;1.38;;;0.10;;
23304;SDS011;11821;51.456;8.844;2023-08-01T04:06:04;0.40;;;0.10;;
23304;SDS011;11821;51.456;8.844;2023-08-01T04:08:32;0.00;;;0.00;;
23304;SDS011;11821;51.456;8.844;2023-08-01T04:10:59;0.52;;;0.20;;
23304;SDS011;11821;51.456;8.844;2023-08-01T04:13:26;0.77;;;0.10;;
23304;SDS011;11821;51.456;8.844;2023-08-01T04:15:53;1.35;;;0.10;;
23304;SDS011;11821;51.456;8.844;2023-08-01T04:18:19;0.00;;;0.00;;
23304;SDS011;11821;51.456;8.844;2023-08-01T04:20:46;0.20;;;0.10;;
23304;SDS011;11821;51.456;8.844;2023-08-01T04:23:12;0.10;;;0.10;;
23304;SDS011;11821;51.456;8.844;2023-08-01T04:25:40;0.30;;;0.10;;
23304;SDS011;11821;51.456;8.844;2023-08-01T04:28:06;0.30;;;0.00;;
23304;SDS011;11821;51.456;8.844;2023-08-01T04:30:33;0.20;;;0.10;;
23304;SDS011;11821;51.456;8.844;2023-08-01T04:32:59;0.13;;;0.13;;
23304;SDS011;11821;51.456;8.844;2023-08-01T04:35:26;0.65;;;0.20;;
23304;SDS011;11821;51.456;8.844;2023-08-01T04:37:53;0.15;;;0.15;;
23304;SDS011;11821;51.456;8.844;2023-08-01T04:40:19;0.52;;;0.52;;
23304;SDS011;11821;51.456;8.844;2023-08-01T04:42:46;0.60;;;0.60;;
23304;SDS011;11821;51.456;8.844;2023-08-01T04:45:12;0.35;;;0.35;;
23304;SDS011;11821;51.456;8.844;2023-08-01T04:47:39;1.17;;;0.50;;
23304;SDS011;11821;51.456;8.844;2023-08-01T04:50:06;1.35;;;0.80;;
23304;SDS011;11821;51.456;8.844;2023-08-01T04:52:33;1.55;;;0.52;;
23304;SDS011;11821;51.456;8.844;2023-08-01T04:54:59;0.50;;;0.50;;
23304;SDS011;11821;51.456;8.844;2023-08-01T04:57:26;1.83;;;0.75;;
23304;SDS011;11821;51.456;8.844;2023-08-01T04:59:52;0.95;;;0.65;;
23304;SDS011;11821;51.456;8.844;2023-08-01T05:02:19;0.70;;;0.70;;
23304;SDS011;11821;51.456;8.844;2023-08-01T05:04:45;0.70;;;0.70;;
23304;SDS011;11821;51.456;8.844;2023-08-01T05:07:12;1.52;;;0.52;;
23304;SDS011;11821;51.456;8.844;2023-08-01T05:09:38;3.78;;;0.70;;
23304;SDS011;11821;51.456;8.844;2023-08-01T05:12:05;1.45;;;0.65;;
23304;SDS011;11821;51.456;8.844;2023-08-01T05:14:32;0.90;;;0.57;;
23304;SDS011;11821;51.456;8.844;2023-08-01T05:16:58;1.88;;;0.70;;
23304;SDS011;11821;51.456;8.844;2023-08-01T05:19:25;0.55;;;0.55;;
23304;SDS011;11821;51.456;8.844;2023-08-01T05:21:51;0.80;;;0.70;;
23304;SDS011;11821;51.456;8.844;2023-08-01T05:24:18;1.10;;;0.90;;
23304;SDS011;11821;51.456;8.844;2023-08-01T05:26:44;1.20;;;1.10;;
23304;SDS011;11821;51.456;8.844;2023-08-01T05:29:11;1.25;;;1.13;;
23304;SDS011;11821;51.456;8.844;2023-08-01T05:31:37;1.88;;;1.40;;
23304;SDS011;11821;51.456;8.844;2023-08-01T05:34:07;1.63;;;1.45;;
23304;SDS011;11821;51.456;8.844;2023-08-01T05:36:33;3.92;;;1.80;;
23304;SDS011;11821;51.456;8.844;2023-08-01T05:39:00;1.92;;;1.35;;
23304;SDS011;11821;51.456;8.844;2023-08-01T05:41:27;2.15;;;1.38;;
23304;SDS011;11821;51.456;8.844;2023-08-01T05:43:54;2.33;;;2.08;;
23304;SDS011;11821;51.456;8.844;2023-08-01T05:46:20;3.17;;;2.83;;
23304;SDS011;11821;51.456;8.844;2023-08-01T05:48:47;3.30;;;2.95;;
23304;SDS011;11821;51.456;8.844;2023-08-01T05:51:13;4.25;;;3.70;;
23304;SDS011;11821;51.456;8.844;2023-08-01T05:53:40;3.78;;;2.90;;
23304;SDS011;11821;51.456;8.844;2023-08-01T05:56:07;5.32;;;4.70;;
23304;SDS011;11821;51.456;8.844;2023-08-01T05:58:33;5.30;;;4.90;;
23304;SDS011;11821;51.456;8.844;2023-08-01T06:01:00;4.78;;;4.40;;
23304;SDS011;11821;51.456;8.844;2023-08-01T06:03:26;6.57;;;4.30;;
23304;SDS011;11821;51.456;8.844;2023-08-01T06:05:53;7.07;;;6.38;;
23304;SDS011;11821;51.456;8.844;2023-08-01T06:08:19;6.95;;;6.35;;
23304;SDS011;11821;51.456;8.844;2023-08-01T06:10:47;8.02;;;7.28;;
23304;SDS011;11821;51.456;8.844;2023-08-01T06:13:13;8.10;;;7.07;;
23304;SDS011;11821;51.456;8.844;2023-08-01T06:15:40;8.60;;;7.82;;
23304;SDS011;11821;51.456;8.844;2023-08-01T06:18:07;8.77;;;7.93;;
23304;SDS011;11821;51.456;8.844;2023-08-01T06:20:33;8.93;;;7.97;;
23304;SDS011;11821;51.456;8.844;2023-08-01T06:23:00;13.40;;;8.95;;
23304;SDS011;11821;51.456;8.844;2023-08-01T06:25:26;8.30;;;7.35;;
23304;SDS011;11821;51.456;8.844;2023-08-01T06:27:53;9.68;;;8.75;;
23304;SDS011;11821;51.456;8.844;2023-08-01T06:30:20;8.93;;;8.23;;
23304;SDS011;11821;51.456;8.844;2023-08-01T06:32:46;9.63;;;8.65;;
23304;SDS011;11821;51.456;8.844;2023-08-01T06:35:13;11.48;;;9.10;;
23304;SDS011;11821;51.456;8.844;2023-08-01T06:37:39;8.40;;;7.68;;
23304;SDS011;11821;51.456;8.844;2023-08-01T06:40:06;9.20;;;8.32;;
23304;SDS011;11821;51.456;8.844;2023-08-01T06:42:33;11.00;;;8.73;;
23304;SDS011;11821;51.456;8.844;2023-08-01T06:45:00;13.38;;;8.65;;
23304;SDS011;11821;51.456;8.844;2023-08-01T06:47:26;12.68;;;8.93;;
23304;SDS011;11821;51.456;8.844;2023-08-01T06:49:53;9.85;;;8.88;;
23304;SDS011;11821;51.456;8.844;2023-08-01T06:52:20;16.13;;;8.20;;
23304;SDS011;11821;51.456;8.844;2023-08-01T06:54:46;11.82;;;8.95;;
23304;SDS011;11821;51.456;8.844;2023-08-01T06:57:13;8.95;;;7.95;;
23304;SDS011;11821;51.456;8.844;2023-08-01T06:59:39;9.30;;;8.27;;
23304;SDS011;11821;51.456;8.844;2023-08-01T07:02:06;9.65;;;7.85;;
23304;SDS011;11821;51.456;8.844;2023-08-01T07:04:34;8.80;;;7.13;;
23304;SDS011;11821;51.456;8.844;2023-08-01T07:07:00;8.07;;;6.57;;
23304;SDS011;11821;51.456;8.844;2023-08-01T07:09:27;8.63;;;6.80;;
23304;SDS011;11821;51.456;8.844;2023-08-01T07:11:53;7.43;;;5.88;;
23304;SDS011;11821;51.456;8.844;2023-08-01T07:14:20;9.57;;;7.10;;
23304;SDS011;11821;51.456;8.844;2023-08-01T07:16:47;9.02;;;5.90;;
23304;SDS011;11821;51.456;8.844;2023-08-01T07:19:13;7.93;;;6.32;;
23304;SDS011;11821;51.456;8.844;2023-08-01T07:21:40;7.20;;;5.65;;
23304;SDS011;11821;51.456;8.844;2023-08-01T07:24:06;6.68;;;5.78;;
23304;SDS011;11821;51.456;8.844;2023-08-01T07:26:33;8.38;;;5.20;;
23304;SDS011;11821;51.456;8.844;2023-08-01T07:28:59;6.55;;;4.90;;
23304;SDS011;11821;51.456;8.844;2023-08-01T07:31:26;6.15;;;5.15;;
23304;SDS011;11821;51.456;8.844;2023-08-01T07:33:53;7.47;;;5.40;;
23304;SDS011;11821;51.456;8.844;2023-08-01T07:36:20;5.38;;;4.88;;
23304;SDS011;11821;51.456;8.844;2023-08-01T07:38:49;7.40;;;5.80;;
23304;SDS011;11821;51.456;8.844;2023-08-01T07:41:16;8.80;;;5.32;;
23304;SDS011;11821;51.456;8.844;2023-08-01T07:43:45;8.80;;;5.38;;
23304;SDS011;11821;51.456;8.844;2023-08-01T07:46:12;7.90;;;5.80;;
23304;SDS011;11821;51.456;8.844;2023-08-01T07:48:38;6.85;;;6.03;;
23304;SDS011;11821;51.456;8.844;2023-08-01T07:51:05;6.72;;;5.75;;
23304;SDS011;11821;51.456;8.844;2023-08-01T07:53:36;10.95;;;5.97;;
23304;SDS011;11821;51.456;8.844;2023-08-01T07:56:02;5.95;;;5.38;;
23304;SDS011;11821;51.456;8.844;2023-08-01T07:58:29;5.68;;;5.05;;
23304;SDS011;11821;51.456;8.844;2023-08-01T08:00:56;5.07;;;4.32;;
23304;SDS011;11821;51.456;8.844;2023-08-01T08:03:22;5.00;;;4.45;;
23304;SDS011;11821;51.456;8.844;2023-08-01T08:05:49;6.97;;;4.88;;
23304;SDS011;11821;51.456;8.844;2023-08-01T08:08:16;5.10;;;4.60;;
23304;SDS011;11821;51.456;8.844;2023-08-01T08:10:42;8.40;;;4.63;;
23304;SDS011;11821;51.456;8.844;2023-08-01T08:13:09;5.97;;;4.45;;
23304;SDS011;11821;51.456;8.844;2023-08-01T08:15:36;4.95;;;3.85;;
23304;SDS011;11821;51.456;8.844;2023-08-01T08:18:02;6.25;;;4.00;;
23304;SDS011;11821;51.456;8.844;2023-08-01T08:20:30;6.72;;;4.47;;
23304;SDS011;11821;51.456;8.844;2023-08-01T08:22:57;5.35;;;4.13;;
23304;SDS011;11821;51.456;8.844;2023-08-01T08:25:23;6.20;;;3.80;;
23304;SDS011;11821;51.456;8.844;2023-08-01T08:27:50;6.25;;;3.83;;
23304;SDS011;11821;51.456;8.844;2023-08-01T08:30:17;5.10;;;3.67;;
23304;SDS011;11821;51.456;8.844;2023-08-01T08:32:43;6.38;;;3.25;;
23304;SDS011;11821;51.456;8.844;2023-08-01T08:35:10;6.18;;;3.47;;
23304;SDS011;11821;51.456;8.844;2023-08-01T08:37:36;6.53;;;3.42;;
23304;SDS011;11821;51.456;8.844;2023-08-01T08:40:03;8.30;;;3.90;;
23304;SDS011;11821;51.456;8.844;2023-08-01T08:42:33;5.72;;;3.97;;
23304;SDS011;11821;51.456;8.844;2023-08-01T08:45:01;5.80;;;4.38;;
23304;SDS011;11821;51.456;8.844;2023-08-01T08:47:28;5.43;;;3.92;;
23304;SDS011;11821;51.456;8.844;2023-08-01T08:49:57;5.40;;;3.97;;
23304;SDS011;11821;51.456;8.844;2023-08-01T08:52:24;5.63;;;4.60;;
23304;SDS011;11821;51.456;8.844;2023-08-01T08:54:52;8.38;;;3.92;;
23304;SDS011;11821;51.456;8.844;2023-08-01T08:57:19;4.85;;;3.63;;
23304;SDS011;11821;51.456;8.844;2023-08-01T08:59:46;6.35;;;4.18;;
23304;SDS011;11821;51.456;8.844;2023-08-01T09:02:13;4.40;;;3.80;;
23304;SDS011;11821;51.456;8.844;2023-08-01T09:04:41;6.35;;;3.53;;
23304;SDS011;11821;51.456;8.844;2023-08-01T09:07:08;5.53;;;3.85;;
23304;SDS011;11821;51.456;8.844;2023-08-01T09:09:38;4.53;;;3.50;;
23304;SDS011;11821;51.456;8.844;2023-08-01T09:12:05;5.43;;;4.15;;
23304;SDS011;11821;51.456;8.844;2023-08-01T09:14:32;4.13;;;3.40;;
23304;SDS011;11821;51.456;8.844;2023-08-01T09:17:05;5.60;;;3.75;;
23304;SDS011;11821;51.456;8.844;2023-08-01T09:19:33;11.35;;;4.60;;
23304;SDS011;11821;51.456;8.844;2023-08-01T09:21:59;11.45;;;3.70;;
23304;SDS011;11821;51.456;8.844;2023-08-01T09:24:26;5.32;;;4.03;;
23304;SDS011;11821;51.456;8.844;2023-08-01T09:26:53;4.57;;;4.07;;
23304;SDS011;11821;51.456;8.844;2023-08-01T09:29:28;7.20;;;3.67;;
23304;SDS011;11821;51.456;8.844;2023-08-01T09:31:57;4.45;;;4.05;;
23304;SDS011;11821;51.456;8.844;2023-08-01T09:34:24;4.05;;;3.65;;
23304;SDS011;11821;51.456;8.844;2023-08-01T09:36:51;5.30;;;3.83;;
23304;SDS011;11821;51.456;8.844;2023-08-01T09:39:20;5.63;;;3.78;;
23304;SDS011;11821;51.456;8.844;2023-08-01T09:41:54;4.72;;;3.63;;
23304;SDS011;11821;51.456;8.844;2023-08-01T09:44:21;4.90;;;3.55;;
23304;SDS011;11821;51.456;8.844;2023-08-01T09:46:57;5.40;;;3.63;;
23304;SDS011;11821;51.456;8.844;2023-08-01T09:49:24;5.50;;;3.70;;
23304;SDS011;11821;51.456;8.844;2023-08-01T09:51:51;5.70;;;3.88;;
23304;SDS011;11821;51.456;8.844;2023-08-01T09:54:17;5.32;;;3.67;;
23304;SDS011;11821;51.456;8.844;2023-08-01T09:56:44;4.38;;;3.97;;
23304;SDS011;11821;51.456;8.844;2023-08-01T09:59:11;4.10;;;3.70;;
23304;SDS011;11821;51.456;8.844;2023-08-01T10:01:42;5.28;;;3.97;;
23304;SDS011;11821;51.456;8.844;2023-08-01T10:04:10;5.25;;;4.15;;
23304;SDS011;11821;51.456;8.844;2023-08-01T10:06:38;5.72;;;4.18;;
23304;SDS011;11821;51.456;8.844;2023-08-01T10:09:09;4.82;;;4.15;;
23304;SDS011;11821;51.456;8.844;2023-08-01T10:11:37;8.48;;;4.28;;
23304;SDS011;11821;51.456;8.844;2023-08-01T10:14:05;3.88;;;3.40;;
23304;SDS011;11821;51.456;8.844;2023-08-01T10:16:32;3.97;;;3.58;;
23304;SDS011;11821;51.456;8.844;2023-08-01T10:19:00;8.52;;;3.20;;
23304;SDS011;11821;51.456;8.844;2023-08-01T10:21:29;4.82;;;3.78;;
23304;SDS011;11821;51.456;8.844;2023-08-01T10:23:55;4.25;;;3.03;;
23304;SDS011;11821;51.456;8.844;2023-08-01T10:26:24;6.65;;;3.58;;
23304;SDS011;11821;51.456;8.844;2023-08-01T10:28:51;5.93;;;3.60;;
23304;SDS011;11821;51.456;8.844;2023-08-01T10:31:18;8.43;;;3.53;;
23304;SDS011;11821;51.456;8.844;2023-08-01T10:33:46;5.35;;;3.13;;
23304;SDS011;11821;51.456;8.844;2023-08-01T10:38:55;3.90;;;2.72;;
23304;SDS011;11821;51.456;8.844;2023-08-01T10:44:14;4.43;;;2.70;;
23304;SDS011;11821;51.456;8.844;2023-08-01T10:46:49;3.90;;;3.15;;
23304;SDS011;11821;51.456;8.844;2023-08-01T10:49:16;4.53;;;3.40;;
23304;SDS011;11821;51.456;8.844;2023-08-01T10:51:44;4.03;;;3.13;;
23304;SDS011;11821;51.456;8.844;2023-08-01T10:54:20;4.72;;;3.75;;
23304;SDS011;11821;51.456;8.844;2023-08-01T10:56:48;2.97;;;2.67;;
23304;SDS011;11821;51.456;8.844;2023-08-01T10:59:15;5.18;;;2.78;;
23304;SDS011;11821;51.456;8.844;2023-08-01T11:01:47;5.28;;;2.70;;
23304;SDS011;11821;51.456;8.844;2023-08-01T11:04:14;4.70;;;3.08;;
23304;SDS011;11821;51.456;8.844;2023-08-01T11:06:51;3.08;;;2.53;;
23304;SDS011;11821;51.456;8.844;2023-08-01T11:09:18;5.28;;;3.40;;
23304;SDS011;11821;51.456;8.844;2023-08-01T11:11:45;6.47;;;3.60;;
23304;SDS011;11821;51.456;8.844;2023-08-01T11:14:14;5.75;;;3.75;;
23304;SDS011;11821;51.456;8.844;2023-08-01T11:16:40;10.65;;;3.50;;
23304;SDS011;11821;51.456;8.844;2023-08-01T11:19:30;6.18;;;3.00;;
23304;SDS011;11821;51.456;8.844;2023-08-01T11:21:55;4.10;;;2.53;;
23304;SDS011;11821;51.456;8.844;2023-08-01T11:24:22;2.97;;;2.53;;
23304;SDS011;11821;51.456;8.844;2023-08-01T11:26:50;2.47;;;2.25;;
23304;SDS011;11821;51.456;8.844;2023-08-01T11:29:17;3.58;;;2.50;;
23304;SDS011;11821;51.456;8.844;2023-08-01T11:31:54;5.38;;;2.38;;
23304;SDS011;11821;51.456;8.844;2023-08-01T11:34:21;3.33;;;2.67;;
23304;SDS011;11821;51.456;8.844;2023-08-01T11:36:48;2.88;;;2.53;;
23304;SDS011;11821;51.456;8.844;2023-08-01T11:39:15;2.45;;;2.25;;
23304;SDS011;11821;51.456;8.844;2023-08-01T11:41:42;3.42;;;2.47;;
23304;SDS011;11821;51.456;8.844;2023-08-01T11:44:09;4.13;;;2.05;;
23304;SDS011;11821;51.456;8.844;2023-08-01T11:46:37;3.55;;;2.38;;
23304;SDS011;11821;51.456;8.844;2023-08-01T11:49:07;3.33;;;2.20;;
23304;SDS011;11821;51.456;8.844;2023-08-01T11:51:41;2.83;;;2.17;;
23304;SDS011;11821;51.456;8.844;2023-08-01T11:54:08;5.18;;;2.08;;
23304;SDS011;11821;51.456;8.844;2023-08-01T11:56:37;3.05;;;1.98;;
23304;SDS011;11821;51.456;8.844;2023-08-01T11:59:08;3.80;;;2.30;;
23304;SDS011;11821;51.456;8.844;2023-08-01T12:01:42;4.18;;;1.98;;
23304;SDS011;11821;51.456;8.844;2023-08-01T12:04:10;3.28;;;2.00;;
23304;SDS011;11821;51.456;8.844;2023-08-01T12:06:36;3.67;;;1.80;;
23304;SDS011;11821;51.456;8.844;2023-08-01T12:09:11;3.88;;;1.63;;
23304;SDS011;11821;51.456;8.844;2023-08-01T12:11:38;2.88;;;1.60;;
23304;SDS011;11821;51.456;8.844;2023-08-01T12:16:36;2.28;;;1.85;;
23304;SDS011;11821;51.456;8.844;2023-08-01T12:19:03;2.00;;;1.70;;
23304;SDS011;11821;51.456;8.844;2023-08-01T12:21:30;4.13;;;1.90;;
23304;SDS011;11821;51.456;8.844;2023-08-01T12:23:57;1.95;;;1.30;;
23304;SDS011;11821;51.456;8.844;2023-08-01T12:26:24;2.33;;;1.60;;
23304;SDS011;11821;51.456;8.844;2023-08-01T12:28:51;3.88;;;1.60;;
23304;SDS011;11821;51.456;8.844;2023-08-01T12:31:17;2.80;;;1.25;;
23304;SDS011;11821;51.456;8.844;2023-08-01T12:33:45;3.90;;;1.77;;
23304;SDS011;11821;51.456;8.844;2023-08-01T12:36:15;3.33;;;2.35;;
23304;SDS011;11821;51.456;8.844;2023-08-01T12:38:41;3.15;;;1.58;;
23304;SDS011;11821;51.456;8.844;2023-08-01T12:41:08;2.38;;;1.45;;
23304;SDS011;11821;51.456;8.844;2023-08-01T12:43:34;1.70;;;1.52;;
23304;SDS011;11821;51.456;8.844;2023-08-01T12:46:01;3.40;;;1.70;;
23304;SDS011;11821;51.456;8.844;2023-08-01T12:48:27;2.53;;;1.42;;
23304;SDS011;11821;51.456;8.844;2023-08-01T12:50:54;3.00;;;1.40;;
23304;SDS011;11821;51.456;8.844;2023-08-01T12:53:21;1.88;;;1.40;;
23304;SDS011;11821;51.456;8.844;2023-08-01T12:55:50;3.00;;;1.33;;
23304;SDS011;11821;51.456;8.844;2023-08-01T12:58:17;4.32;;;1.65;;
23304;SDS011;11821;51.456;8.844;2023-08-01T13:00:43;3.00;;;1.70;;
23304;SDS011;11821;51.456;8.844;2023-08-01T13:03:10;6.00;;;2.10;;
23304;SDS011;11821;51.456;8.844;2023-08-01T13:05:37;3.20;;;1.58;;
23304;SDS011;11821;51.456;8.844;2023-08-01T13:08:05;7.00;;;2.38;;
23304;SDS011;11821;51.456;8.844;2023-08-01T13:10:32;6.18;;;1.95;;
23304;SDS011;11821;51.456;8.844;2023-08-01T13:12:59;2.65;;;1.10;;
23304;SDS011;11821;51.456;8.844;2023-08-01T13:15:26;2.38;;;1.30;;
23304;SDS011;11821;51.456;8.844;2023-08-01T13:17:53;2.38;;;0.95;;
23304;SDS011;11821;51.456;8.844;2023-08-01T13:20:20;2.35;;;1.00;;
23304;SDS011;11821;51.456;8.844;2023-08-01T13:22:47;1.45;;;0.90;;
23304;SDS011;11821;51.456;8.844;2023-08-01T13:25:14;1.60;;;1.20;;
23304;SDS011;11821;51.456;8.844;2023-08-01T13:27:41;1.48;;;1.10;;
23304;SDS011;11821;51.456;8.844;2023-08-01T13:30:08;3.70;;;0.90;;
23304;SDS011;11821;51.456;8.844;2023-08-01T13:32:35;2.33;;;1.17;;
23304;SDS011;11821;51.456;8.844;2023-08-01T13:35:01;1.75;;;1.20;;
23304;SDS011;11821;51.456;8.844;2023-08-01T13:37:28;2.05;;;1.13;;
23304;SDS011;11821;51.456;8.844;2023-08-01T13:39:57;2.72;;;1.35;;
23304;SDS011;11821;51.456;8.844;2023-08-01T13:42:23;3.00;;;1.38;;
23304;SDS011;11821;51.456;8.844;2023-08-01T13:44:50;2.50;;;1.42;;
23304;SDS011;11821;51.456;8.844;2023-08-01T13:47:17;2.03;;;1.40;;
23304;SDS011;11821;51.456;8.844;2023-08-01T13:49:43;2.47;;;1.38;;
23304;SDS011;11821;51.456;8.844;2023-08-01T13:52:10;2.75;;;1.70;;
23304;SDS011;11821;51.456;8.844;2023-08-01T13:54:36;2.70;;;1.77;;
23304;SDS011;11821;51.456;8.844;2023-08-01T13:57:03;2.92;;;1.50;;
23304;SDS011;11821;51.456;8.844;2023-08-01T13:59:29;3.17;;;1.60;;
23304;SDS011;11821;51.456;8.844;2023-08-01T14:01:56;2.92;;;1.85;;
23304;SDS011;11821;51.456;8.844;2023-08-01T14:04:22;4.47;;;1.90;;
23304;SDS011;11821;51.456;8.844;2023-08-01T14:06:49;3.35;;;1.70;;
23304;SDS011;11821;51.456;8.844;2023-08-01T14:09:15;3.00;;;1.63;;
23304;SDS011;11821;51.456;8.844;2023-08-01T14:11:42;3.97;;;1.40;;
23304;SDS011;11821;51.456;8.844;2023-08-01T14:14:09;4.72;;;1.58;;
23304;SDS011;11821;51.456;8.844;2023-08-01T14:16:35;3.05;;;1.58;;
23304;SDS011;11821;51.456;8.844;2023-08-01T14:19:02;2.30;;;1.67;;
23304;SDS011;11821;51.456;8.844;2023-08-01T14:21:29;3.97;;;1.73;;
23304;SDS011;11821;51.456;8.844;2023-08-01T14:23:56;3.53;;;1.77;;
23304;SDS011;11821;51.456;8.844;2023-08-01T14:26:23;2.85;;;1.67;;
23304;SDS011;11821;51.456;8.844;2023-08-01T14:28:49;3.42;;;1.38;;
23304;SDS011;11821;51.456;8.844;2023-08-01T14:31:16;4.80;;;1.90;;
23304;SDS011;11821;51.456;8.844;2023-08-01T14:33:43;3.50;;;1.60;;
23304;SDS011;11821;51.456;8.844;2023-08-01T14:36:09;2.80;;;1.73;;
23304;SDS011;11821;51.456;8.844;2023-08-01T14:38:38;2.47;;;1.40;;
23304;SDS011;11821;51.456;8.844;2023-08-01T14:41:05;2.20;;;1.63;;
23304;SDS011;11821;51.456;8.844;2023-08-01T14:43:34;3.65;;;1.73;;
23304;SDS011;11821;51.456;8.844;2023-08-01T14:46:01;2.60;;;1.48;;
23304;SDS011;11821;51.456;8.844;2023-08-01T14:48:28;3.50;;;1.48;;
23304;SDS011;11821;51.456;8.844;2023-08-01T14:50:54;2.58;;;1.50;;
23304;SDS011;11821;51.456;8.844;2023-08-01T14:53:21;3.15;;;1.88;;
23304;SDS011;11821;51.456;8.844;2023-08-01T14:55:55;1.88;;;1.38;;
23304;SDS011;11821;51.456;8.844;2023-08-01T14:58:22;2.13;;;1.40;;